sensor_id;sensor_type;location;lat;lon;timestamp;P1;durP1;ratioP1;P2;durP2;ratioP2
2762;SDS011;1389;51.490;7.338;2023-06-10T00:01:20;217.33;;;20.80;;
2762;SDS011;1389;51.490;7.338;2023-06-10T00:03:49;256.13;;;35.75;;
2762;SDS011;1389;51.490;7.338;2023-06-10T00:06:15;265.70;;;39.10;;
2762;SDS011;1389;51.490;7.338;2023-06-10T00:08:42;260.48;;;37.95;;
2762;SDS011;1389;51.490;7.338;2023-06-10T00:11:08;343.27;;;84.93;;
2762;SDS011;1389;51.490;7.338;2023-06-10T00:13:35;198.73;;;17.20;;
2762;SDS011;1389;51.490;7.338;2023-06-10T00:16:02;179.90;;;15.40;;
2762;SDS011;1389;51.490;7.338;2023-06-10T00:18:28;635.05;;;124.35;;
2762;SDS011;1389;51.490;7.338;2023-06-10T00:20:56;199.37;;;19.50;;
2762;SDS011;1389;51.490;7.338;2023-06-10T00:23:29;189.90;;;15.50;;
2762;SDS011;1389;51.490;7.338;2023-06-10T00:26:03;1999.90;;;999.90;;
2762;SDS011;1389;51.490;7.338;2023-06-10T00:28:30;549.90;;;297.27;;
2762;SDS011;1389;51.490;7.338;2023-06-10T00:30:56;365.55;;;158.05;;
2762;SDS011;1389;51.490;7.338;2023-06-10T00:33:23;478.05;;;306.02;;
2762;SDS011;1389;51.490;7.338;2023-06-10T00:35:49;1999.90;;;999.90;;
2762;SDS011;1389;51.490;7.338;2023-06-10T00:38:16;1999.90;;;999.90;;
2762;SDS011;1389;51.490;7.338;2023-06-10T00:40:42;1999.90;;;999.90;;
2762;SDS011;1389;51.490;7.338;2023-06-10T00:43:09;1999.90;;;999.90;;
2762;SDS011;1389;51.490;7.338;2023-06-10T00:45:35;1999.90;;;999.90;;
2762;SDS011;1389;51.490;7.338;2023-06-10T00:48:01;1999.90;;;999.90;;
2762;SDS011;1389;51.490;7.338;2023-06-10T00:50:28;1999.90;;;999.90;;
2762;SDS011;1389;51.490;7.338;2023-06-10T00:52:54;1999.90;;;999.90;;
2762;SDS011;1389;51.490;7.338;2023-06-10T00:55:21;1999.90;;;999.90;;
2762;SDS011;1389;51.490;7.338;2023-06-10T00:57:48;1999.90;;;999.90;;
2762;SDS011;1389;51.490;7.338;2023-06-10T01:00:17;1999.90;;;999.90;;
2762;SDS011;1389;51.490;7.338;2023-06-10T01:02:43;1999.90;;;999.90;;
2762;SDS011;1389;51.490;7.338;2023-06-10T01:05:10;1999.90;;;999.90;;
2762;SDS011;1389;51.490;7.338;2023-06-10T01:08:12;1999.90;;;999.90;;
2762;SDS011;1389;51.490;7.338;2023-06-10T01:13:12;1999.90;;;999.90;;
2762;SDS011;1389;51.490;7.338;2023-06-10T01:15:39;1999.90;;;999.90;;
2762;SDS011;1389;51.490;7.338;2023-06-10T01:18:06;1999.90;;;999.90;;
2762;SDS011;1389;51.490;7.338;2023-06-10T01:20:35;346.35;;;116.15;;
2762;SDS011;1389;51.490;7.338;2023-06-10T01:23:05;350.43;;;84.53;;
2762;SDS011;1389;51.490;7.338;2023-06-10T01:25:32;329.25;;;73.05;;
2762;SDS011;1389;51.490;7.338;2023-06-10T01:28:07;718.38;;;275.30;;
2762;SDS011;1389;51.490;7.338;2023-06-10T01:30:37;300.08;;;39.88;;
2762;SDS011;1389;51.490;7.338;2023-06-10T01:33:06;329.33;;;72.05;;
2762;SDS011;1389;51.490;7.338;2023-06-10T01:35:33;318.25;;;63.00;;
2762;SDS011;1389;51.490;7.338;2023-06-10T01:38:02;329.58;;;80.47;;
2762;SDS011;1389;51.490;7.338;2023-06-10T01:40:29;1999.90;;;999.90;;
2762;SDS011;1389;51.490;7.338;2023-06-10T01:42:56;1999.90;;;999.90;;
2762;SDS011;1389;51.490;7.338;2023-06-10T01:45:22;1999.90;;;999.90;;
2762;SDS011;1389;51.490;7.338;2023-06-10T01:47:48;710.80;;;270.65;;
2762;SDS011;1389;51.490;7.338;2023-06-10T01:50:15;724.00;;;284.55;;
2762;SDS011;1389;51.490;7.338;2023-06-10T01:52:42;711.42;;;270.40;;
2762;SDS011;1389;51.490;7.338;2023-06-10T01:55:08;269.95;;;37.53;;
2762;SDS011;1389;51.490;7.338;2023-06-10T01:57:34;708.55;;;269.70;;
2762;SDS011;1389;51.490;7.338;2023-06-10T02:00:01;265.20;;;25.30;;
2762;SDS011;1389;51.490;7.338;2023-06-10T02:02:28;1999.90;;;999.90;;
2762;SDS011;1389;51.490;7.338;2023-06-10T02:04:54;1999.90;;;999.90;;
2762;SDS011;1389;51.490;7.338;2023-06-10T02:07:21;1999.90;;;999.90;;
2762;SDS011;1389;51.490;7.338;2023-06-10T02:09:47;353.88;;;106.93;;
2762;SDS011;1389;51.490;7.338;2023-06-10T02:12:14;294.20;;;41.05;;
2762;SDS011;1389;51.490;7.338;2023-06-10T02:14:40;293.75;;;44.15;;
2762;SDS011;1389;51.490;7.338;2023-06-10T02:17:07;278.80;;;34.53;;
2762;SDS011;1389;51.490;7.338;2023-06-10T02:19:38;263.42;;;31.10;;
2762;SDS011;1389;51.490;7.338;2023-06-10T02:22:08;258.15;;;29.40;;
2762;SDS011;1389;51.490;7.338;2023-06-10T02:24:35;224.57;;;23.05;;
2762;SDS011;1389;51.490;7.338;2023-06-10T02:27:03;222.18;;;24.05;;
2762;SDS011;1389;51.490;7.338;2023-06-10T02:29:33;228.20;;;22.13;;
2762;SDS011;1389;51.490;7.338;2023-06-10T02:32:01;228.70;;;23.20;;
2762;SDS011;1389;51.490;7.338;2023-06-10T02:34:28;223.77;;;20.85;;
2762;SDS011;1389;51.490;7.338;2023-06-10T02:36:54;229.60;;;24.10;;
2762;SDS011;1389;51.490;7.338;2023-06-10T02:39:21;247.48;;;42.33;;
2762;SDS011;1389;51.490;7.338;2023-06-10T02:41:48;231.82;;;26.58;;
2762;SDS011;1389;51.490;7.338;2023-06-10T02:44:14;225.10;;;22.90;;
2762;SDS011;1389;51.490;7.338;2023-06-10T02:46:40;229.10;;;24.52;;
2762;SDS011;1389;51.490;7.338;2023-06-10T02:49:07;228.02;;;23.73;;
2762;SDS011;1389;51.490;7.338;2023-06-10T02:51:33;227.02;;;23.92;;
2762;SDS011;1389;51.490;7.338;2023-06-10T02:53:59;225.00;;;22.73;;
2762;SDS011;1389;51.490;7.338;2023-06-10T02:56:26;215.65;;;18.80;;
2762;SDS011;1389;51.490;7.338;2023-06-10T02:58:52;215.33;;;18.80;;
2762;SDS011;1389;51.490;7.338;2023-06-10T03:01:19;224.80;;;23.65;;
2762;SDS011;1389;51.490;7.338;2023-06-10T03:03:45;222.30;;;21.60;;
2762;SDS011;1389;51.490;7.338;2023-06-10T03:06:12;222.82;;;22.45;;
2762;SDS011;1389;51.490;7.338;2023-06-10T03:08:42;222.50;;;22.48;;
2762;SDS011;1389;51.490;7.338;2023-06-10T03:11:08;219.23;;;20.30;;
2762;SDS011;1389;51.490;7.338;2023-06-10T03:13:35;229.63;;;23.57;;
2762;SDS011;1389;51.490;7.338;2023-06-10T03:16:02;232.00;;;23.70;;
2762;SDS011;1389;51.490;7.338;2023-06-10T03:18:30;222.07;;;19.30;;
2762;SDS011;1389;51.490;7.338;2023-06-10T03:20:56;223.30;;;19.90;;
2762;SDS011;1389;51.490;7.338;2023-06-10T03:23:23;226.93;;;22.30;;
2762;SDS011;1389;51.490;7.338;2023-06-10T03:25:49;230.70;;;25.80;;
2762;SDS011;1389;51.490;7.338;2023-06-10T03:28:16;225.20;;;23.33;;
2762;SDS011;1389;51.490;7.338;2023-06-10T03:30:42;225.38;;;22.33;;
2762;SDS011;1389;51.490;7.338;2023-06-10T03:33:08;224.98;;;22.17;;
2762;SDS011;1389;51.490;7.338;2023-06-10T03:35:35;225.90;;;22.88;;
2762;SDS011;1389;51.490;7.338;2023-06-10T03:38:01;232.23;;;25.83;;
2762;SDS011;1389;51.490;7.338;2023-06-10T03:40:27;228.45;;;22.73;;
2762;SDS011;1389;51.490;7.338;2023-06-10T03:42:55;230.57;;;23.60;;
2762;SDS011;1389;51.490;7.338;2023-06-10T03:45:22;234.45;;;25.42;;
2762;SDS011;1389;51.490;7.338;2023-06-10T03:47:49;228.85;;;23.23;;
2762;SDS011;1389;51.490;7.338;2023-06-10T03:50:16;222.82;;;21.70;;
2762;SDS011;1389;51.490;7.338;2023-06-10T03:52:42;222.00;;;20.50;;
2762;SDS011;1389;51.490;7.338;2023-06-10T03:55:09;220.82;;;21.05;;
2762;SDS011;1389;51.490;7.338;2023-06-10T03:57:36;224.10;;;22.27;;
2762;SDS011;1389;51.490;7.338;2023-06-10T04:00:03;233.45;;;27.75;;
2762;SDS011;1389;51.490;7.338;2023-06-10T04:02:35;222.07;;;20.15;;
2762;SDS011;1389;51.490;7.338;2023-06-10T04:05:02;226.33;;;23.77;;
2762;SDS011;1389;51.490;7.338;2023-06-10T04:07:28;232.30;;;28.13;;
2762;SDS011;1389;51.490;7.338;2023-06-10T04:09:56;251.57;;;29.60;;
2762;SDS011;1389;51.490;7.338;2023-06-10T04:12:22;237.70;;;25.33;;
2762;SDS011;1389;51.490;7.338;2023-06-10T04:14:49;256.63;;;40.90;;
2762;SDS011;1389;51.490;7.338;2023-06-10T04:17:16;305.92;;;72.38;;
2762;SDS011;1389;51.490;7.338;2023-06-10T04:19:43;313.63;;;68.70;;
2762;SDS011;1389;51.490;7.338;2023-06-10T04:22:09;293.77;;;50.07;;
2762;SDS011;1389;51.490;7.338;2023-06-10T04:24:36;1999.90;;;999.90;;
2762;SDS011;1389;51.490;7.338;2023-06-10T04:27:02;1999.90;;;999.90;;
2762;SDS011;1389;51.490;7.338;2023-06-10T04:29:36;1999.90;;;999.90;;
2762;SDS011;1389;51.490;7.338;2023-06-10T04:32:03;1999.90;;;999.90;;
2762;SDS011;1389;51.490;7.338;2023-06-10T04:34:31;54.28;;;7.07;;
2762;SDS011;1389;51.490;7.338;2023-06-10T04:36:57;181.93;;;16.10;;
2762;SDS011;1389;51.490;7.338;2023-06-10T04:39:23;183.52;;;16.30;;
2762;SDS011;1389;51.490;7.338;2023-06-10T04:41:50;179.48;;;15.00;;
2762;SDS011;1389;51.490;7.338;2023-06-10T04:44:16;198.80;;;20.10;;
2762;SDS011;1389;51.490;7.338;2023-06-10T04:46:44;190.50;;;15.90;;
2762;SDS011;1389;51.490;7.338;2023-06-10T04:49:11;191.93;;;16.10;;
2762;SDS011;1389;51.490;7.338;2023-06-10T04:51:39;187.50;;;15.87;;
2762;SDS011;1389;51.490;7.338;2023-06-10T04:54:06;184.50;;;15.55;;
2762;SDS011;1389;51.490;7.338;2023-06-10T04:56:32;181.60;;;15.20;;
2762;SDS011;1389;51.490;7.338;2023-06-10T04:58:59;179.90;;;15.00;;
2762;SDS011;1389;51.490;7.338;2023-06-10T05:01:26;178.15;;;14.85;;
2762;SDS011;1389;51.490;7.338;2023-06-10T05:03:53;204.35;;;18.80;;
2762;SDS011;1389;51.490;7.338;2023-06-10T05:06:19;192.63;;;17.00;;
2762;SDS011;1389;51.490;7.338;2023-06-10T05:08:46;353.88;;;121.55;;
2762;SDS011;1389;51.490;7.338;2023-06-10T05:11:13;407.25;;;194.38;;
2762;SDS011;1389;51.490;7.338;2023-06-10T05:13:41;309.77;;;85.60;;
2762;SDS011;1389;51.490;7.338;2023-06-10T05:16:08;358.15;;;99.72;;
2762;SDS011;1389;51.490;7.338;2023-06-10T05:18:34;1999.90;;;999.90;;
2762;SDS011;1389;51.490;7.338;2023-06-10T05:21:01;1999.90;;;999.90;;
2762;SDS011;1389;51.490;7.338;2023-06-10T05:23:27;269.67;;;36.25;;
2762;SDS011;1389;51.490;7.338;2023-06-10T05:25:54;351.02;;;149.90;;
2762;SDS011;1389;51.490;7.338;2023-06-10T05:28:20;306.17;;;86.30;;
2762;SDS011;1389;51.490;7.338;2023-06-10T05:30:47;1999.90;;;999.90;;
2762;SDS011;1389;51.490;7.338;2023-06-10T05:33:13;1999.90;;;999.90;;
2762;SDS011;1389;51.490;7.338;2023-06-10T05:35:39;1999.90;;;999.90;;
2762;SDS011;1389;51.490;7.338;2023-06-10T05:38:06;1999.90;;;999.90;;
2762;SDS011;1389;51.490;7.338;2023-06-10T05:40:32;1999.90;;;999.90;;
2762;SDS011;1389;51.490;7.338;2023-06-10T05:42:58;1999.90;;;999.90;;
2762;SDS011;1389;51.490;7.338;2023-06-10T05:45:25;1999.90;;;999.90;;
2762;SDS011;1389;51.490;7.338;2023-06-10T05:47:51;1999.90;;;999.90;;
2762;SDS011;1389;51.490;7.338;2023-06-10T05:50:18;1999.90;;;999.90;;
2762;SDS011;1389;51.490;7.338;2023-06-10T05:52:44;1999.90;;;999.90;;
2762;SDS011;1389;51.490;7.338;2023-06-10T05:55:10;1999.90;;;999.90;;
2762;SDS011;1389;51.490;7.338;2023-06-10T05:57:37;1999.90;;;999.90;;
2762;SDS011;1389;51.490;7.338;2023-06-10T06:00:03;1999.90;;;999.90;;
2762;SDS011;1389;51.490;7.338;2023-06-10T06:02:30;1999.90;;;999.90;;
2762;SDS011;1389;51.490;7.338;2023-06-10T06:04:56;1999.90;;;999.90;;
2762;SDS011;1389;51.490;7.338;2023-06-10T06:07:22;1999.90;;;999.90;;
2762;SDS011;1389;51.490;7.338;2023-06-10T06:09:49;1999.90;;;999.90;;
2762;SDS011;1389;51.490;7.338;2023-06-10T06:12:15;1999.90;;;999.90;;
2762;SDS011;1389;51.490;7.338;2023-06-10T06:14:41;1999.90;;;999.90;;
2762;SDS011;1389;51.490;7.338;2023-06-10T06:17:08;1999.90;;;999.90;;
2762;SDS011;1389;51.490;7.338;2023-06-10T06:19:34;1999.90;;;999.90;;
2762;SDS011;1389;51.490;7.338;2023-06-10T06:22:01;1999.90;;;999.90;;
2762;SDS011;1389;51.490;7.338;2023-06-10T06:24:30;1999.90;;;999.90;;
2762;SDS011;1389;51.490;7.338;2023-06-10T06:26:56;1999.90;;;999.90;;
2762;SDS011;1389;51.490;7.338;2023-06-10T06:29:22;1999.90;;;999.90;;
2762;SDS011;1389;51.490;7.338;2023-06-10T06:31:49;1999.90;;;999.90;;
2762;SDS011;1389;51.490;7.338;2023-06-10T06:34:15;1999.90;;;999.90;;
2762;SDS011;1389;51.490;7.338;2023-06-10T06:36:42;1999.90;;;999.90;;
2762;SDS011;1389;51.490;7.338;2023-06-10T06:39:08;1999.90;;;999.90;;
2762;SDS011;1389;51.490;7.338;2023-06-10T06:41:34;1999.90;;;999.90;;
2762;SDS011;1389;51.490;7.338;2023-06-10T06:44:01;1999.90;;;999.90;;
2762;SDS011;1389;51.490;7.338;2023-06-10T06:46:28;1999.90;;;999.90;;
2762;SDS011;1389;51.490;7.338;2023-06-10T06:48:54;1999.90;;;999.90;;
2762;SDS011;1389;51.490;7.338;2023-06-10T06:51:20;1999.90;;;999.90;;
2762;SDS011;1389;51.490;7.338;2023-06-10T06:53:47;1999.90;;;999.90;;
2762;SDS011;1389;51.490;7.338;2023-06-10T06:56:15;1999.90;;;999.90;;
2762;SDS011;1389;51.490;7.338;2023-06-10T06:58:42;1999.90;;;999.90;;
2762;SDS011;1389;51.490;7.338;2023-06-10T07:01:08;1999.90;;;999.90;;
2762;SDS011;1389;51.490;7.338;2023-06-10T07:03:34;1999.90;;;999.90;;
2762;SDS011;1389;51.490;7.338;2023-06-10T07:06:01;1999.90;;;999.90;;
2762;SDS011;1389;51.490;7.338;2023-06-10T07:08:27;1999.90;;;999.90;;
2762;SDS011;1389;51.490;7.338;2023-06-10T07:10:54;1999.90;;;999.90;;
2762;SDS011;1389;51.490;7.338;2023-06-10T07:13:20;1999.90;;;999.90;;
2762;SDS011;1389;51.490;7.338;2023-06-10T07:15:46;1999.90;;;999.90;;
2762;SDS011;1389;51.490;7.338;2023-06-10T07:18:14;1999.90;;;999.90;;
2762;SDS011;1389;51.490;7.338;2023-06-10T07:20:41;1999.90;;;999.90;;
2762;SDS011;1389;51.490;7.338;2023-06-10T07:23:08;1999.90;;;999.90;;
2762;SDS011;1389;51.490;7.338;2023-06-10T07:25:34;1999.90;;;999.90;;
2762;SDS011;1389;51.490;7.338;2023-06-10T07:28:00;1999.90;;;999.90;;
2762;SDS011;1389;51.490;7.338;2023-06-10T07:30:27;1999.90;;;999.90;;
2762;SDS011;1389;51.490;7.338;2023-06-10T07:32:54;1999.90;;;999.90;;
2762;SDS011;1389;51.490;7.338;2023-06-10T07:35:21;1999.90;;;999.90;;
2762;SDS011;1389;51.490;7.338;2023-06-10T07:37:47;1999.90;;;999.90;;
2762;SDS011;1389;51.490;7.338;2023-06-10T07:40:14;1999.90;;;999.90;;
2762;SDS011;1389;51.490;7.338;2023-06-10T07:42:40;1999.90;;;999.90;;
2762;SDS011;1389;51.490;7.338;2023-06-10T07:45:07;1999.90;;;999.90;;
2762;SDS011;1389;51.490;7.338;2023-06-10T07:47:33;1999.90;;;999.90;;
2762;SDS011;1389;51.490;7.338;2023-06-10T07:50:00;1999.90;;;999.90;;
2762;SDS011;1389;51.490;7.338;2023-06-10T07:52:26;1999.90;;;999.90;;
2762;SDS011;1389;51.490;7.338;2023-06-10T07:54:54;1999.90;;;999.90;;
2762;SDS011;1389;51.490;7.338;2023-06-10T07:57:20;1999.90;;;999.90;;
2762;SDS011;1389;51.490;7.338;2023-06-10T07:59:46;1999.90;;;999.90;;
2762;SDS011;1389;51.490;7.338;2023-06-10T08:02:14;1999.90;;;999.90;;
2762;SDS011;1389;51.490;7.338;2023-06-10T08:04:40;1999.90;;;999.90;;
2762;SDS011;1389;51.490;7.338;2023-06-10T08:07:07;1999.90;;;999.90;;
2762;SDS011;1389;51.490;7.338;2023-06-10T08:09:33;1999.90;;;999.90;;
2762;SDS011;1389;51.490;7.338;2023-06-10T08:12:00;1999.90;;;999.90;;
2762;SDS011;1389;51.490;7.338;2023-06-10T08:14:26;1999.90;;;999.90;;
2762;SDS011;1389;51.490;7.338;2023-06-10T08:16:52;1999.90;;;999.90;;
2762;SDS011;1389;51.490;7.338;2023-06-10T08:19:19;1999.90;;;999.90;;
2762;SDS011;1389;51.490;7.338;2023-06-10T08:21:45;1999.90;;;999.90;;
2762;SDS011;1389;51.490;7.338;2023-06-10T08:24:11;1999.90;;;999.90;;
2762;SDS011;1389;51.490;7.338;2023-06-10T08:26:40;1999.90;;;999.90;;
2762;SDS011;1389;51.490;7.338;2023-06-10T08:29:07;1999.90;;;999.90;;
2762;SDS011;1389;51.490;7.338;2023-06-10T08:31:33;1999.90;;;999.90;;
2762;SDS011;1389;51.490;7.338;2023-06-10T08:33:59;1999.90;;;999.90;;
2762;SDS011;1389;51.490;7.338;2023-06-10T08:36:26;1999.90;;;999.90;;
2762;SDS011;1389;51.490;7.338;2023-06-10T08:38:52;1999.90;;;999.90;;
2762;SDS011;1389;51.490;7.338;2023-06-10T08:41:19;1999.90;;;999.90;;
2762;SDS011;1389;51.490;7.338;2023-06-10T08:43:54;1999.90;;;999.90;;
2762;SDS011;1389;51.490;7.338;2023-06-10T08:46:23;1999.90;;;999.90;;
2762;SDS011;1389;51.490;7.338;2023-06-10T08:48:51;1999.90;;;999.90;;
2762;SDS011;1389;51.490;7.338;2023-06-10T08:51:20;1999.90;;;999.90;;
2762;SDS011;1389;51.490;7.338;2023-06-10T08:53:53;1999.90;;;999.90;;
2762;SDS011;1389;51.490;7.338;2023-06-10T08:56:19;1999.90;;;999.90;;
2762;SDS011;1389;51.490;7.338;2023-06-10T08:58:47;1999.90;;;999.90;;
2762;SDS011;1389;51.490;7.338;2023-06-10T09:01:14;1999.90;;;999.90;;
2762;SDS011;1389;51.490;7.338;2023-06-10T09:03:42;1999.90;;;999.90;;
2762;SDS011;1389;51.490;7.338;2023-06-10T09:06:08;1999.90;;;999.90;;
2762;SDS011;1389;51.490;7.338;2023-06-10T09:08:35;1999.90;;;999.90;;
2762;SDS011;1389;51.490;7.338;2023-06-10T09:11:01;1999.90;;;999.90;;
2762;SDS011;1389;51.490;7.338;2023-06-10T09:13:28;1999.90;;;999.90;;
2762;SDS011;1389;51.490;7.338;2023-06-10T09:15:55;1999.90;;;999.90;;
2762;SDS011;1389;51.490;7.338;2023-06-10T09:18:26;1999.90;;;999.90;;
2762;SDS011;1389;51.490;7.338;2023-06-10T09:20:52;1999.90;;;999.90;;
2762;SDS011;1389;51.490;7.338;2023-06-10T09:23:18;1999.90;;;999.90;;
2762;SDS011;1389;51.490;7.338;2023-06-10T09:25:45;1999.90;;;999.90;;
2762;SDS011;1389;51.490;7.338;2023-06-10T09:28:14;1999.90;;;999.90;;
2762;SDS011;1389;51.490;7.338;2023-06-10T09:30:41;1999.90;;;999.90;;
2762;SDS011;1389;51.490;7.338;2023-06-10T09:33:11;1999.90;;;999.90;;
2762;SDS011;1389;51.490;7.338;2023-06-10T09:35:45;1999.90;;;999.90;;
2762;SDS011;1389;51.490;7.338;2023-06-10T09:38:12;1999.90;;;999.90;;
2762;SDS011;1389;51.490;7.338;2023-06-10T09:40:51;1999.90;;;999.90;;
2762;SDS011;1389;51.490;7.338;2023-06-10T09:43:18;1999.90;;;999.90;;
2762;SDS011;1389;51.490;7.338;2023-06-10T09:45:47;1999.90;;;999.90;;
2762;SDS011;1389;51.490;7.338;2023-06-10T09:48:13;1999.90;;;999.90;;
2762;SDS011;1389;51.490;7.338;2023-06-10T09:50:43;1999.90;;;999.90;;
2762;SDS011;1389;51.490;7.338;2023-06-10T09:53:10;1999.90;;;999.90;;
2762;SDS011;1389;51.490;7.338;2023-06-10T09:55:40;1999.90;;;999.90;;
2762;SDS011;1389;51.490;7.338;2023-06-10T09:58:07;1999.90;;;999.90;;
2762;SDS011;1389;51.490;7.338;2023-06-10T10:00:33;1999.90;;;999.90;;
2762;SDS011;1389;51.490;7.338;2023-06-10T10:03:00;1999.90;;;999.90;;
2762;SDS011;1389;51.490;7.338;2023-06-10T10:05:27;1999.90;;;999.90;;
2762;SDS011;1389;51.490;7.338;2023-06-10T10:07:53;1999.90;;;999.90;;
2762;SDS011;1389;51.490;7.338;2023-06-10T10:10:21;1999.90;;;999.90;;
2762;SDS011;1389;51.490;7.338;2023-06-10T10:12:48;1999.90;;;999.90;;
2762;SDS011;1389;51.490;7.338;2023-06-10T10:15:17;1999.90;;;999.90;;
2762;SDS011;1389;51.490;7.338;2023-06-10T10:17:52;1999.90;;;999.90;;
2762;SDS011;1389;51.490;7.338;2023-06-10T10:20:20;1999.90;;;999.90;;
2762;SDS011;1389;51.490;7.338;2023-06-10T10:22:48;1999.90;;;999.90;;
2762;SDS011;1389;51.490;7.338;2023-06-10T10:25:21;1999.90;;;999.90;;
2762;SDS011;1389;51.490;7.338;2023-06-10T10:27:55;1999.90;;;999.90;;
2762;SDS011;1389;51.490;7.338;2023-06-10T10:30:22;1999.90;;;999.90;;
2762;SDS011;1389;51.490;7.338;2023-06-10T10:35:35;1999.90;;;999.90;;
2762;SDS011;1389;51.490;7.338;2023-06-10T10:38:02;1999.90;;;999.90;;
2762;SDS011;1389;51.490;7.338;2023-06-10T10:40:29;1999.90;;;999.90;;
2762;SDS011;1389;51.490;7.338;2023-06-10T10:42:56;1999.90;;;999.90;;
2762;SDS011;1389;51.490;7.338;2023-06-10T10:45:22;1999.90;;;999.90;;
2762;SDS011;1389;51.490;7.338;2023-06-10T10:47:51;1999.90;;;999.90;;
2762;SDS011;1389;51.490;7.338;2023-06-10T10:50:19;1999.90;;;999.90;;
2762;SDS011;1389;51.490;7.338;2023-06-10T10:55:41;1999.90;;;999.90;;
2762;SDS011;1389;51.490;7.338;2023-06-10T10:58:08;1999.90;;;999.90;;
2762;SDS011;1389;51.490;7.338;2023-06-10T11:00:37;1999.90;;;999.90;;
2762;SDS011;1389;51.490;7.338;2023-06-10T11:05:32;1999.90;;;999.90;;
2762;SDS011;1389;51.490;7.338;2023-06-10T11:08:00;1999.90;;;999.90;;
2762;SDS011;1389;51.490;7.338;2023-06-10T11:10:33;1999.90;;;999.90;;
2762;SDS011;1389;51.490;7.338;2023-06-10T11:13:00;1999.90;;;999.90;;
2762;SDS011;1389;51.490;7.338;2023-06-10T11:15:31;1999.90;;;999.90;;
2762;SDS011;1389;51.490;7.338;2023-06-10T11:26:14;1999.90;;;999.90;;
2762;SDS011;1389;51.490;7.338;2023-06-10T11:31:19;1999.90;;;999.90;;
2762;SDS011;1389;51.490;7.338;2023-06-10T11:33:46;1999.90;;;999.90;;
2762;SDS011;1389;51.490;7.338;2023-06-10T11:36:14;1999.90;;;999.90;;
2762;SDS011;1389;51.490;7.338;2023-06-10T11:38:40;1999.90;;;999.90;;
2762;SDS011;1389;51.490;7.338;2023-06-10T11:41:06;1999.90;;;999.90;;
2762;SDS011;1389;51.490;7.338;2023-06-10T11:43:33;1999.90;;;999.90;;
2762;SDS011;1389;51.490;7.338;2023-06-10T11:46:00;1999.90;;;999.90;;
2762;SDS011;1389;51.490;7.338;2023-06-10T11:48:27;1999.90;;;999.90;;
2762;SDS011;1389;51.490;7.338;2023-06-10T11:50:55;1999.90;;;999.90;;
2762;SDS011;1389;51.490;7.338;2023-06-10T11:53:22;1999.90;;;999.90;;
2762;SDS011;1389;51.490;7.338;2023-06-10T11:55:50;1999.90;;;999.90;;
2762;SDS011;1389;51.490;7.338;2023-06-10T12:00:52;1999.90;;;999.90;;
2762;SDS011;1389;51.490;7.338;2023-06-10T12:03:20;1999.90;;;999.90;;
2762;SDS011;1389;51.490;7.338;2023-06-10T12:06:04;1999.90;;;999.90;;
2762;SDS011;1389;51.490;7.338;2023-06-10T12:08:30;1999.90;;;999.90;;
2762;SDS011;1389;51.490;7.338;2023-06-10T12:10:57;1999.90;;;999.90;;
2762;SDS011;1389;51.490;7.338;2023-06-10T12:13:26;1999.90;;;999.90;;
2762;SDS011;1389;51.490;7.338;2023-06-10T12:15:53;1999.90;;;999.90;;
2762;SDS011;1389;51.490;7.338;2023-06-10T12:18:21;1999.90;;;999.90;;
2762;SDS011;1389;51.490;7.338;2023-06-10T12:20:47;1999.90;;;999.90;;
2762;SDS011;1389;51.490;7.338;2023-06-10T12:23:14;1999.90;;;999.90;;
2762;SDS011;1389;51.490;7.338;2023-06-10T12:25:51;1999.90;;;999.90;;
2762;SDS011;1389;51.490;7.338;2023-06-10T12:28:24;1999.90;;;999.90;;
2762;SDS011;1389;51.490;7.338;2023-06-10T12:30:51;1999.90;;;999.90;;
2762;SDS011;1389;51.490;7.338;2023-06-10T12:33:18;1999.90;;;999.90;;
2762;SDS011;1389;51.490;7.338;2023-06-10T12:35:51;1999.90;;;999.90;;
2762;SDS011;1389;51.490;7.338;2023-06-10T12:38:21;1999.90;;;999.90;;
2762;SDS011;1389;51.490;7.338;2023-06-10T12:40:49;1999.90;;;999.90;;
2762;SDS011;1389;51.490;7.338;2023-06-10T12:43:22;1999.90;;;999.90;;
2762;SDS011;1389;51.490;7.338;2023-06-10T12:45:49;1999.90;;;999.90;;
2762;SDS011;1389;51.490;7.338;2023-06-10T12:48:20;1999.90;;;999.90;;
2762;SDS011;1389;51.490;7.338;2023-06-10T12:50:52;1999.90;;;999.90;;
2762;SDS011;1389;51.490;7.338;2023-06-10T12:53:19;1999.90;;;999.90;;
2762;SDS011;1389;51.490;7.338;2023-06-10T12:55:46;1999.90;;;999.90;;
2762;SDS011;1389;51.490;7.338;2023-06-10T12:58:13;1999.90;;;999.90;;
2762;SDS011;1389;51.490;7.338;2023-06-10T13:00:39;1999.90;;;999.90;;
2762;SDS011;1389;51.490;7.338;2023-06-10T13:03:07;1999.90;;;999.90;;
2762;SDS011;1389;51.490;7.338;2023-06-10T13:05:34;1999.90;;;999.90;;
2762;SDS011;1389;51.490;7.338;2023-06-10T13:08:02;1999.90;;;999.90;;
2762;SDS011;1389;51.490;7.338;2023-06-10T13:10:29;1999.90;;;999.90;;
2762;SDS011;1389;51.490;7.338;2023-06-10T13:12:56;1999.90;;;999.90;;
2762;SDS011;1389;51.490;7.338;2023-06-10T13:15:22;1999.90;;;999.90;;
2762;SDS011;1389;51.490;7.338;2023-06-10T13:17:49;1999.90;;;999.90;;
2762;SDS011;1389;51.490;7.338;2023-06-10T13:20:16;1999.90;;;999.90;;
2762;SDS011;1389;51.490;7.338;2023-06-10T13:22:42;1999.90;;;999.90;;
2762;SDS011;1389;51.490;7.338;2023-06-10T13:25:09;1999.90;;;999.90;;
2762;SDS011;1389;51.490;7.338;2023-06-10T13:27:35;1999.90;;;999.90;;
2762;SDS011;1389;51.490;7.338;2023-06-10T13:30:08;1999.90;;;999.90;;
2762;SDS011;1389;51.490;7.338;2023-06-10T13:32:35;1999.90;;;999.90;;
2762;SDS011;1389;51.490;7.338;2023-06-10T13:35:02;1999.90;;;999.90;;
2762;SDS011;1389;51.490;7.338;2023-06-10T13:37:28;1999.90;;;999.90;;
2762;SDS011;1389;51.490;7.338;2023-06-10T13:39:55;1999.90;;;999.90;;
2762;SDS011;1389;51.490;7.338;2023-06-10T13:42:21;1999.90;;;999.90;;
2762;SDS011;1389;51.490;7.338;2023-06-10T13:44:48;1999.90;;;999.90;;
2762;SDS011;1389;51.490;7.338;2023-06-10T13:47:14;1999.90;;;999.90;;
2762;SDS011;1389;51.490;7.338;2023-06-10T13:49:41;1999.90;;;999.90;;
2762;SDS011;1389;51.490;7.338;2023-06-10T13:52:07;1999.90;;;999.90;;
2762;SDS011;1389;51.490;7.338;2023-06-10T13:54:34;1999.90;;;999.90;;
2762;SDS011;1389;51.490;7.338;2023-06-10T13:57:03;1999.90;;;999.90;;
2762;SDS011;1389;51.490;7.338;2023-06-10T13:59:30;1999.90;;;999.90;;
2762;SDS011;1389;51.490;7.338;2023-06-10T14:01:56;1999.90;;;999.90;;
2762;SDS011;1389;51.490;7.338;2023-06-10T14:04:23;1999.90;;;999.90;;
2762;SDS011;1389;51.490;7.338;2023-06-10T14:06:49;1999.90;;;999.90;;
2762;SDS011;1389;51.490;7.338;2023-06-10T14:09:16;1999.90;;;999.90;;
2762;SDS011;1389;51.490;7.338;2023-06-10T14:11:42;1999.90;;;999.90;;
2762;SDS011;1389;51.490;7.338;2023-06-10T14:14:09;1999.90;;;999.90;;
2762;SDS011;1389;51.490;7.338;2023-06-10T14:16:35;1999.90;;;999.90;;
2762;SDS011;1389;51.490;7.338;2023-06-10T14:19:02;1999.90;;;999.90;;
2762;SDS011;1389;51.490;7.338;2023-06-10T14:21:28;1999.90;;;999.90;;
2762;SDS011;1389;51.490;7.338;2023-06-10T14:23:54;1999.90;;;999.90;;
2762;SDS011;1389;51.490;7.338;2023-06-10T14:26:21;1999.90;;;999.90;;
2762;SDS011;1389;51.490;7.338;2023-06-10T14:28:47;1999.90;;;999.90;;
2762;SDS011;1389;51.490;7.338;2023-06-10T14:31:15;1999.90;;;999.90;;
2762;SDS011;1389;51.490;7.338;2023-06-10T14:33:41;1999.90;;;999.90;;
2762;SDS011;1389;51.490;7.338;2023-06-10T14:36:09;1999.90;;;999.90;;
2762;SDS011;1389;51.490;7.338;2023-06-10T14:38:35;1999.90;;;999.90;;
2762;SDS011;1389;51.490;7.338;2023-06-10T14:41:02;1999.90;;;999.90;;